Jenny — WDB7954 — position and weather

sailwx.info

Track history (hours):
 
Tides and Currents Weather Stations Pressure Air Temp Water Temp Dewpoint Dewpoint Depression Visibility Wind Speed Wind Dir Waves Ship Positions

Jenny

Owner: Wilmington Tug, Inc., New Castle, DE. More information available from US FCC via Universal Licensing System and Coast Guard Vessel Documentation Center.

Last reported at 2017-Nov-18 23:34 UTC. Time now 2017-Nov-20 15:09 UTC.
Position N 39°43' W 075°31'.

Length 12 m; draft 1.1 m.

Type: Passenger vessel. MMSI: 366950410.

Date/timePositionNaut miles runAvg speedWind from/ knotsBaromVisibWave heightAir tempDewpointWater temp
2017-Nov-18 23:34N 39°43' W 075°31'112.6
2017-Nov-18 23:30N 39°42' W 075°31'815.3
2017-Nov-18 23:00N 39°35' W 075°33'2 3.3
2017-Nov-18 22:30N 39°35' W 075°35'5 9.7
2017-Nov-18 22:00N 39°39' W 075°34'4 0.2
2017-Nov-17 23:01N 39°43' W 075°31'0 0.9
2017-Nov-17 23:01N 39°43' W 075°31'714.7
2017-Nov-17 22:30N 39°37' W 075°36'4 7.4
2017-Nov-17 22:00N 39°34' W 075°33'918.3
2017-Nov-17 21:30N 39°43' W 075°31'0 0.0
2017-Nov-17 14:05N 39°43' W 075°31'111.5
2017-Nov-17 14:01N 39°42' W 075°31'816.5
2017-Nov-17 13:30N 39°35' W 075°35'1 2.8
2017-Nov-17 13:00N 39°35' W 075°34'816.4
2017-Nov-17 12:30N 39°43' W 075°31'0 0.0
2017-Nov-16 21:57N 39°43' W 075°31'1 2.1
2017-Nov-16 21:30N 39°42' W 075°31'2 3.2
2017-Nov-16 21:00N 39°41' W 075°32'2 3.5
2017-Nov-16 20:31N 39°39' W 075°33'1 2.1
2017-Nov-16 20:00N 39°38' W 075°34'1 2.6
2017-Nov-16 19:31N 39°37' W 075°35'1 2.7
2017-Nov-16 19:00N 39°36' W 075°34'1 2.8
2017-Nov-16 18:31N 39°35' W 075°33'2 3.3
2017-Nov-16 18:00N 39°33' W 075°32'1 2.5
2017-Nov-16 17:31N 39°34' W 075°31'2 3.7
2017-Nov-16 17:01N 39°35' W 075°29'5 9.7
2017-Nov-16 16:30N 39°35' W 075°35'1 2.5
2017-Nov-16 16:00N 39°35' W 075°33'816.8
2017-Nov-16 15:30N 39°43' W 075°31'0 0.0
2017-Nov-16 09:02N 39°43' W 075°31'0 0.2
2017-Nov-16 09:01N 39°43' W 075°31'3 6.1
2017-Nov-16 08:31N 39°40' W 075°32'611.6
2017-Nov-16 08:00N 39°35' W 075°34'1 1.5
2017-Nov-16 07:30N 39°35' W 075°35'0 0.0
2017-Nov-16 07:00N 39°35' W 075°35'0 0.0
2017-Nov-16 06:30N 39°35' W 075°35'0 0.0
2017-Nov-16 06:00N 39°35' W 075°35'0 0.0
2017-Nov-16 05:30N 39°35' W 075°35'0 0.0
2017-Nov-16 05:01N 39°35' W 075°35'0 0.0
2017-Nov-16 04:30N 39°35' W 075°35'0 0.0
2017-Nov-16 04:00N 39°35' W 075°35'0 0.0
2017-Nov-16 03:30N 39°35' W 075°35'0 0.2
2017-Nov-16 03:00N 39°35' W 075°35'1 1.4
2017-Nov-16 02:30N 39°35' W 075°34'611.1
2017-Nov-16 02:00N 39°40' W 075°33'3 0.2
2017-Nov-15 04:17N 39°43' W 075°31'518.0
2017-Nov-15 04:01N 39°39' W 075°34'611.6
2017-Nov-15 03:30N 39°33' W 075°33'1 3.0
2017-Nov-15 03:01N 39°35' W 075°33'714.9
2017-Nov-15 02:31N 39°42' W 075°31'1 0.1
2017-Nov-14 17:16N 39°43' W 075°30'0 0.4
2017-Nov-14 16:05N 39°43' W 075°31'0 5.1
2017-Nov-14 16:00N 39°43' W 075°30'0 0.7
2017-Nov-14 15:30N 39°42' W 075°30'1 0.6
2017-Nov-14 14:10N 39°43' W 075°31'212.4
2017-Nov-14 14:00N 39°41' W 075°31'816.7
2017-Nov-14 13:30N 39°33' W 075°33'816.6
2017-Nov-14 13:00N 39°41' W 075°32'2 0.2
2017-Nov-14 02:09N 39°43' W 075°31'215.5
2017-Nov-14 02:00N 39°41' W 075°32'713.5
2017-Nov-14 01:31N 39°35' W 075°35'2 4.4
2017-Nov-14 01:00N 39°33' W 075°33'4 8.9
2017-Nov-14 00:30N 39°38' W 075°34'611.5
2017-Nov-14 00:00N 39°43' W 075°31'11 0.5
2017-Nov-13 02:00N 39°32' W 075°33'611.2
2017-Nov-13 01:31N 39°38' W 075°34'611.5
2017-Nov-13 01:00N 39°43' W 075°31'0 0.0
2017-Nov-11 12:31N 39°43' W 075°31'0 5.7
2017-Nov-11 12:30N 39°43' W 075°31'714.0
2017-Nov-11 12:00N 39°37' W 075°35'5 9.9
2017-Nov-11 11:30N 39°33' W 075°32'2 3.3
2017-Nov-11 11:00N 39°34' W 075°33'611.4
2017-Nov-11 10:31N 39°40' W 075°32'3 0.1
2017-Nov-10 03:42N 39°43' W 075°31'1 3.3
2017-Nov-10 03:30N 39°43' W 075°30'0 0.1
2017-Nov-10 03:00N 39°43' W 075°30'1 0.1
2017-Nov-09 21:03N 39°43' W 075°31'0 0.2
2017-Nov-09 21:01N 39°43' W 075°31'816.8
2017-Nov-09 20:31N 39°35' W 075°33'3 5.1
2017-Nov-09 20:01N 39°37' W 075°36'7 1.5
2017-Nov-09 15:20N 39°43' W 075°31'0 0.1
2017-Nov-09 15:00N 39°43' W 075°31'  
Track history (hours):
 
Tides and Currents Weather Stations Pressure Air Temp Water Temp Dewpoint Dewpoint Depression Visibility Wind Speed Wind Dir Waves Ship Positions

Jenny

Owner: Wilmington Tug, Inc., New Castle, DE. More information available from US FCC via Universal Licensing System and Coast Guard Vessel Documentation Center.

Last reported at 2017-Nov-18 23:34 UTC. Time now 2017-Nov-20 15:09 UTC.
Position N 39°43' W 075°31'.

Length 12 m; draft 1.1 m.

Type: Passenger vessel. MMSI: 366950410.

Date/timePositionNaut miles runAvg speedWind from/ knotsBaromVisibWave heightAir tempDewpointWater temp
2017-Nov-18 23:34N 39°43' W 075°31'112.6
2017-Nov-18 23:30N 39°42' W 075°31'815.3
2017-Nov-18 23:00N 39°35' W 075°33'2 3.3
2017-Nov-18 22:30N 39°35' W 075°35'5 9.7
2017-Nov-18 22:00N 39°39' W 075°34'4 0.2
2017-Nov-17 23:01N 39°43' W 075°31'0 0.9
2017-Nov-17 23:01N 39°43' W 075°31'714.7
2017-Nov-17 22:30N 39°37' W 075°36'4 7.4
2017-Nov-17 22:00N 39°34' W 075°33'918.3
2017-Nov-17 21:30N 39°43' W 075°31'0 0.0
2017-Nov-17 14:05N 39°43' W 075°31'111.5
2017-Nov-17 14:01N 39°42' W 075°31'816.5
2017-Nov-17 13:30N 39°35' W 075°35'1 2.8
2017-Nov-17 13:00N 39°35' W 075°34'816.4
2017-Nov-17 12:30N 39°43' W 075°31'0 0.0
2017-Nov-16 21:57N 39°43' W 075°31'1 2.1
2017-Nov-16 21:30N 39°42' W 075°31'2 3.2
2017-Nov-16 21:00N 39°41' W 075°32'2 3.5
2017-Nov-16 20:31N 39°39' W 075°33'1 2.1
2017-Nov-16 20:00N 39°38' W 075°34'1 2.6
2017-Nov-16 19:31N 39°37' W 075°35'1 2.7
2017-Nov-16 19:00N 39°36' W 075°34'1 2.8
2017-Nov-16 18:31N 39°35' W 075°33'2 3.3
2017-Nov-16 18:00N 39°33' W 075°32'1 2.5
2017-Nov-16 17:31N 39°34' W 075°31'2 3.7
2017-Nov-16 17:01N 39°35' W 075°29'5 9.7
2017-Nov-16 16:30N 39°35' W 075°35'1 2.5
2017-Nov-16 16:00N 39°35' W 075°33'816.8
2017-Nov-16 15:30N 39°43' W 075°31'0 0.0
2017-Nov-16 09:02N 39°43' W 075°31'0 0.2
2017-Nov-16 09:01N 39°43' W 075°31'3 6.1
2017-Nov-16 08:31N 39°40' W 075°32'611.6
2017-Nov-16 08:00N 39°35' W 075°34'1 1.5
2017-Nov-16 07:30N 39°35' W 075°35'0 0.0
2017-Nov-16 07:00N 39°35' W 075°35'0 0.0
2017-Nov-16 06:30N 39°35' W 075°35'0 0.0
2017-Nov-16 06:00N 39°35' W 075°35'0 0.0
2017-Nov-16 05:30N 39°35' W 075°35'0 0.0
2017-Nov-16 05:01N 39°35' W 075°35'0 0.0
2017-Nov-16 04:30N 39°35' W 075°35'0 0.0
2017-Nov-16 04:00N 39°35' W 075°35'0 0.0
2017-Nov-16 03:30N 39°35' W 075°35'0 0.2
2017-Nov-16 03:00N 39°35' W 075°35'1 1.4
2017-Nov-16 02:30N 39°35' W 075°34'611.1
2017-Nov-16 02:00N 39°40' W 075°33'3 0.2
2017-Nov-15 04:17N 39°43' W 075°31'518.0
2017-Nov-15 04:01N 39°39' W 075°34'611.6
2017-Nov-15 03:30N 39°33' W 075°33'1 3.0
2017-Nov-15 03:01N 39°35' W 075°33'714.9
2017-Nov-15 02:31N 39°42' W 075°31'1 0.1
2017-Nov-14 17:16N 39°43' W 075°30'0 0.4
2017-Nov-14 16:05N 39°43' W 075°31'0 5.1
2017-Nov-14 16:00N 39°43' W 075°30'0 0.7
2017-Nov-14 15:30N 39°42' W 075°30'1 0.6
2017-Nov-14 14:10N 39°43' W 075°31'212.4
2017-Nov-14 14:00N 39°41' W 075°31'816.7
2017-Nov-14 13:30N 39°33' W 075°33'816.6
2017-Nov-14 13:00N 39°41' W 075°32'2 0.2
2017-Nov-14 02:09N 39°43' W 075°31'215.5
2017-Nov-14 02:00N 39°41' W 075°32'713.5
2017-Nov-14 01:31N 39°35' W 075°35'2 4.4
2017-Nov-14 01:00N 39°33' W 075°33'4 8.9
2017-Nov-14 00:30N 39°38' W 075°34'611.5
2017-Nov-14 00:00N 39°43' W 075°31'11 0.5
2017-Nov-13 02:00N 39°32' W 075°33'611.2
2017-Nov-13 01:31N 39°38' W 075°34'611.5
2017-Nov-13 01:00N 39°43' W 075°31'0 0.0
2017-Nov-11 12:31N 39°43' W 075°31'0 5.7
2017-Nov-11 12:30N 39°43' W 075°31'714.0
2017-Nov-11 12:00N 39°37' W 075°35'5 9.9
2017-Nov-11 11:30N 39°33' W 075°32'2 3.3
2017-Nov-11 11:00N 39°34' W 075°33'611.4
2017-Nov-11 10:31N 39°40' W 075°32'3 0.1
2017-Nov-10 03:42N 39°43' W 075°31'1 3.3
2017-Nov-10 03:30N 39°43' W 075°30'0 0.1
2017-Nov-10 03:00N 39°43' W 075°30'1 0.1
2017-Nov-09 21:03N 39°43' W 075°31'0 0.2
2017-Nov-09 21:01N 39°43' W 075°31'816.8
2017-Nov-09 20:31N 39°35' W 075°33'3 5.1
2017-Nov-09 20:01N 39°37' W 075°36'7 1.5
2017-Nov-09 15:20N 39°43' W 075°31'0 0.1
2017-Nov-09 15:00N 39°43' W 075°31'  

Dump ship's entire track history